createdAt,value
2023-01-30T00:03:06.921Z,99739.61
2023-01-30T00:11:32.698Z,99717.85
2023-01-30T00:19:55.705Z,99709.36
2023-01-30T00:28:19.573Z,99693.58
2023-01-30T00:36:42.725Z,99683.80
2023-01-30T00:45:24.679Z,99675.80
2023-01-30T00:53:47.668Z,99664.48
2023-01-30T01:02:10.698Z,99648.20
2023-01-30T01:10:33.795Z,99618.19
2023-01-30T01:18:57.241Z,99600.20
2023-01-30T01:27:20.244Z,99579.07
2023-01-30T01:35:44.789Z,99568.16
2023-01-30T01:44:14.626Z,99550.66
2023-01-30T01:52:38.169Z,99530.33
2023-01-30T02:01:02.473Z,99509.97
2023-01-30T02:09:26.531Z,99489.27
2023-01-30T02:17:50.816Z,99464.27
2023-01-30T02:26:45.916Z,99450.42
2023-01-30T02:35:27.609Z,99430.67
2023-01-30T02:43:50.998Z,99418.94
2023-01-30T02:52:17.299Z,99406.63
2023-01-30T03:01:19.117Z,99402.16
2023-01-30T03:09:55.595Z,99388.49
2023-01-30T03:18:21.151Z,99375.34
2023-01-30T03:27:02.747Z,99357.05
2023-01-30T03:35:26.457Z,99334.52
2023-01-30T03:43:49.428Z,99319.54
2023-01-30T03:52:13.156Z,99304.20
2023-01-30T04:00:36.406Z,99277.04
2023-01-30T04:08:59.695Z,99248.24
2023-01-30T04:17:31.477Z,99239.38
2023-01-30T04:26:27.876Z,99229.79
2023-01-30T04:34:51.419Z,99214.30
2023-01-30T04:43:15.134Z,99207.84
2023-01-30T04:51:50.219Z,99184.06
2023-01-30T05:00:13.788Z,99161.59
2023-01-30T05:08:43.848Z,99138.16
2023-01-30T05:17:08.411Z,99124.92
2023-01-30T05:25:31.587Z,99125.16
2023-01-30T05:33:54.545Z,99111.89
2023-01-30T05:42:17.671Z,99094.69
2023-01-30T05:50:41.059Z,99082.30
2023-01-30T05:59:04.392Z,99065.41
2023-01-30T06:07:27.765Z,99038.06
2023-01-30T06:15:52.886Z,99022.30
2023-01-30T06:24:15.914Z,98998.77
2023-01-30T06:32:38.869Z,98990.59
2023-01-30T06:41:01.807Z,98973.53
2023-01-30T06:49:24.816Z,98964.27
2023-01-30T06:57:48.518Z,98943.56
2023-01-30T07:06:11.323Z,98930.48
2023-01-30T07:14:34.772Z,98933.20
2023-01-30T07:22:58.936Z,98933.30
2023-01-30T07:31:25.735Z,98911.55
2023-01-30T07:39:52.094Z,98896.66
2023-01-30T07:48:18.952Z,98919.00
2023-01-30T07:56:41.912Z,98892.46
2023-01-30T08:05:06.353Z,98871.89
2023-01-30T08:13:29.332Z,98868.50
2023-01-30T08:21:52.203Z,98848.95
2023-01-30T08:30:15.448Z,98840.06
2023-01-30T08:38:38.465Z,98817.35
2023-01-30T08:47:01.340Z,98805.98
2023-01-30T08:55:24.460Z,98802.23
2023-01-30T09:03:48.221Z,98796.93
2023-01-30T09:12:11.458Z,98795.91
2023-01-30T09:20:34.516Z,98793.06
2023-01-30T09:28:57.500Z,98785.36
2023-01-30T09:37:20.473Z,98757.88
2023-01-30T09:46:00.037Z,98740.23
2023-01-30T09:54:29.824Z,98714.40
2023-01-30T10:03:05.048Z,98700.70
2023-01-30T10:11:42.916Z,98682.59
2023-01-30T10:20:31.924Z,98677.84
2023-01-30T10:29:15.794Z,98664.42
2023-01-30T10:37:47.663Z,98651.54
2023-01-30T10:46:10.628Z,98630.27
2023-01-30T10:54:42.709Z,98616.85
2023-01-30T11:03:40.480Z,98603.98
2023-01-30T11:12:03.406Z,98594.52
2023-01-30T11:20:26.516Z,98568.39
2023-01-30T11:28:50.567Z,98545.31
2023-01-30T11:37:47.560Z,98541.40
2023-01-30T11:46:14.312Z,98527.66
2023-01-30T11:54:44.526Z,98523.45
2023-01-30T12:03:12.268Z,98517.12
2023-01-30T12:11:56.378Z,98497.48
2023-01-30T12:20:28.168Z,98494.50
2023-01-30T12:28:58.341Z,98483.34
2023-01-30T12:37:23.972Z,98476.94
2023-01-30T12:46:03.436Z,98472.19
2023-01-30T12:54:43.092Z,98471.14
2023-01-30T13:03:35.121Z,98476.45
2023-01-30T13:12:50.878Z,98463.58
2023-01-30T13:21:31.796Z,98446.80
2023-01-30T13:29:56.290Z,98443.18
2023-01-30T13:38:27.285Z,98444.64
2023-01-30T13:46:52.531Z,98443.27
2023-01-30T13:55:34.078Z,98444.52
2023-01-30T14:04:36.032Z,98446.20
2023-01-30T14:13:09.413Z,98443.02
2023-01-30T14:21:32.604Z,98443.02
2023-01-30T14:29:56.443Z,98441.95
2023-01-30T14:38:20.866Z,98442.65
2023-01-30T14:46:54.222Z,98453.79
2023-01-30T14:55:24.483Z,98463.83
2023-01-30T15:03:49.238Z,98471.10
2023-01-30T15:12:35.768Z,98478.16
2023-01-30T15:21:27.988Z,98479.54
2023-01-30T15:30:26.893Z,98481.37
2023-01-30T15:39:00.032Z,98490.39
2023-01-30T15:47:32.965Z,98508.11
2023-01-30T15:55:55.992Z,98502.34
2023-01-30T16:04:29.388Z,98508.98
2023-01-30T16:12:56.394Z,98522.82
2023-01-30T16:21:23.052Z,98530.45
2023-01-30T16:29:51.225Z,98535.73
2023-01-30T16:38:35.635Z,98545.46
2023-01-30T16:47:26.017Z,98544.94
2023-01-30T16:56:17.055Z,98544.33
2023-01-30T17:04:42.017Z,98537.15
2023-01-30T17:13:05.700Z,98530.44
2023-01-30T17:21:35.136Z,98531.15
2023-01-30T17:29:58.427Z,98534.10
2023-01-30T17:38:44.812Z,98535.89
2023-01-30T17:47:12.488Z,98542.94
2023-01-30T17:55:36.179Z,98540.76
2023-01-30T18:04:05.216Z,98547.98
2023-01-30T18:23:01.316Z,98553.35
2023-01-30T18:32:19.889Z,98545.35
2023-01-30T18:41:31.966Z,98556.95
2023-01-30T18:50:41.963Z,98563.23
2023-01-30T18:59:58.770Z,98570.37
2023-01-30T19:18:19.296Z,98571.56
2023-01-30T19:26:43.433Z,98581.27
2023-01-30T19:35:43.002Z,98576.51
2023-01-30T19:45:21.141Z,98582.10
2023-01-30T19:53:54.782Z,98571.40
2023-01-30T20:03:03.810Z,98573.89
2023-01-30T20:11:31.255Z,98580.13
2023-01-30T20:20:32.090Z,98570.98
2023-01-30T20:29:39.890Z,98579.70
2023-01-30T20:39:10.551Z,98583.24
2023-01-30T20:48:31.892Z,98577.59
2023-01-30T20:57:47.132Z,98578.02
2023-01-30T21:06:41.135Z,98578.66
2023-01-30T21:15:51.606Z,98587.89
2023-01-30T21:24:25.499Z,98609.98
2023-01-30T21:33:14.872Z,98616.02
2023-01-30T21:42:25.737Z,98620.64
2023-01-30T21:51:36.467Z,98630.63
